Terminal Aerodrome Forecast
Issued by NWS Sterling, VA

Current Version | Previous Version | Text Only | Print | Product List | Glossary Off
Versions: 1 2 3 4 5 6 7 8 9 10 11 12 13 14 15 16 17 18 19 20 21

462
FTUS41 KLWX 081131
TAFIAD
TAF
KIAD 081131Z 0812/0918 VRB03KT P6SM OVC035
     FM081500 29007KT P6SM BKN090
     FM081700 29010G20KT P6SM SCT100=

USA.gov is the U.S. government's official web portal to all federal, state and local government web resources and services.